Time;durP1;ratioP1;P1;durP2;ratioP2;P2;SDS_P1;SDS_P2;PMS_P1;PMS_P2;Temp;Humidity;BMP_temperature;BMP_pressure;BME280_temperature;BME280_humidity;BME280_pressure;Samples;Min_cycle;Max_cycle;Signal;HPM_P1;HPM_P2
2022/01/08 00:01:09;;;;;;;0.40;0.40;;;;;;;1.87;95.63;99224.50;5062647;28;20024;-70
2022/01/08 00:03:35;;;;;;;0.40;0.40;;;;;;;1.91;95.78;99214.31;5063128;28;20044;-71
2022/01/08 00:06:00;;;;;;;0.40;0.40;;;;;;;1.94;95.62;99219.44;5062854;28;20092;-70
2022/01/08 00:08:25;;;;;;;0.40;0.40;;;;;;;2.00;95.87;99212.69;5062971;28;20044;-69
2022/01/08 00:10:53;;;;;;;0.57;0.57;;;;;;;2.04;95.78;99209.28;5063132;28;20032;-69
2022/01/08 00:13:19;;;;;;;0.40;0.40;;;;;;;2.08;95.78;99218.69;5062857;28;20036;-71
2022/01/08 00:15:44;;;;;;;0.40;0.40;;;;;;;2.04;96.00;99199.03;5047312;28;20021;-70
2022/01/08 00:18:09;;;;;;;0.40;0.40;;;;;;;2.13;96.05;99219.56;5066268;28;20051;-70
2022/01/08 00:20:35;;;;;;;0.40;0.40;;;;;;;1.89;96.30;99177.59;5066540;28;20112;-70
2022/01/08 00:23:01;;;;;;;0.40;0.40;;;;;;;2.12;96.24;99212.75;5048545;28;20025;-69
2022/01/08 00:25:27;;;;;;;0.40;0.40;;;;;;;2.18;96.10;99212.78;5066236;28;20028;-70
2022/01/08 00:27:53;;;;;;;0.40;0.40;;;;;;;2.20;96.04;99211.09;5066420;28;20017;-71
2022/01/08 00:30:18;;;;;;;0.95;0.95;;;;;;;1.99;96.00;99175.97;5066377;28;20040;-71
2022/01/08 00:32:43;;;;;;;0.40;0.40;;;;;;;2.18;95.97;99194.88;5066326;28;20041;-71
2022/01/08 00:35:10;;;;;;;0.40;0.40;;;;;;;2.22;95.63;99211.94;5066363;28;20025;-70
2022/01/08 00:37:37;;;;;;;0.40;0.40;;;;;;;2.25;95.62;99207.72;5066404;28;20064;-72
2022/01/08 00:40:05;;;;;;;0.40;0.40;;;;;;;2.21;95.38;99211.94;5066322;28;20610;-72
2022/01/08 00:42:30;;;;;;;0.40;0.40;;;;;;;2.19;95.17;99196.56;5066264;28;20029;-72
2022/01/08 00:44:55;;;;;;;0.40;0.40;;;;;;;2.16;95.10;99200.81;5066220;28;20023;-72
2022/01/08 00:47:21;;;;;;;0.40;0.40;;;;;;;2.16;95.03;99201.66;5066288;28;20029;-72
2022/01/08 00:49:46;;;;;;;0.40;0.40;;;;;;;2.12;94.20;99197.38;5066407;28;20055;-72
2022/01/08 00:52:11;;;;;;;0.40;0.40;;;;;;;2.10;93.69;99199.06;5066241;28;20085;-72
2022/01/08 00:54:38;;;;;;;0.40;0.40;;;;;;;2.11;93.36;99203.34;5066172;28;20033;-72
2022/01/08 00:57:04;;;;;;;0.40;0.40;;;;;;;2.12;93.53;99202.50;5066213;28;20082;-71
2022/01/08 00:59:30;;;;;;;0.40;0.40;;;;;;;2.07;93.43;99199.91;5066084;28;20021;-71
2022/01/08 01:01:55;;;;;;;0.40;0.40;;;;;;;2.15;93.48;99211.91;5065932;28;20032;-70
2022/01/08 01:04:20;;;;;;;0.40;0.40;;;;;;;2.15;93.72;99215.34;5065974;28;20060;-70
2022/01/08 01:06:46;;;;;;;1.98;1.88;;;;;;;2.09;93.48;99197.38;5066187;28;20029;-69
2022/01/08 01:09:11;;;;;;;0.40;0.40;;;;;;;2.14;92.48;99211.03;5065909;28;20465;-69
2022/01/08 01:11:37;;;;;;;0.40;0.40;;;;;;;2.11;92.55;99213.56;5066259;28;20028;-69
2022/01/08 01:14:02;;;;;;;0.40;0.40;;;;;;;2.09;92.25;99211.00;5065682;28;20025;-69
2022/01/08 01:16:28;;;;;;;0.40;0.40;;;;;;;2.12;91.76;99223.00;5065524;28;20025;-69
2022/01/08 01:18:54;;;;;;;0.40;0.40;;;;;;;2.04;92.08;99199.03;5065648;28;20025;-69
2022/01/08 01:21:20;;;;;;;0.40;0.40;;;;;;;2.11;91.18;99216.13;5065793;28;20048;-69
2022/01/08 01:23:46;;;;;;;0.40;0.40;;;;;;;2.09;91.42;99203.31;5065843;28;20461;-69
2022/01/08 01:26:17;;;;;;;0.40;0.40;;;;;;;2.12;90.69;99211.88;5065102;28;20473;-69
2022/01/08 01:28:52;;;;;;;0.40;0.40;;;;;;;2.09;90.62;99213.56;5065704;28;20043;-69
2022/01/08 01:47:04;;;;;;;0.40;0.40;;;;;;;2.17;90.97;99199.97;5033757;28;20116;-68
2022/01/08 01:49:35;;;;;;;0.40;0.40;;;;;;;2.16;91.00;99199.13;5047150;28;20032;-69
2022/01/08 01:52:03;;;;;;;0.50;0.50;;;;;;;2.19;90.49;99199.13;5065282;28;20017;-71
2022/01/08 01:54:30;;;;;;;0.40;0.40;;;;;;;2.12;91.08;99192.28;5065165;28;20075;-71
2022/01/08 01:56:59;;;;;;;0.50;0.50;;;;;;;2.19;90.78;99200.84;5065694;28;20052;-71
2022/01/08 01:59:26;;;;;;;0.60;0.60;;;;;;;2.13;90.46;99186.28;5065329;28;20031;-71
2022/01/08 02:01:52;;;;;;;0.40;0.40;;;;;;;2.23;90.63;99200.88;5065194;28;20426;-69
2022/01/08 02:04:17;;;;;;;0.40;0.40;;;;;;;2.21;90.75;99202.56;5064914;28;20095;-70
2022/01/08 02:06:42;;;;;;;0.40;0.40;;;;;;;2.28;91.04;99202.59;5064902;28;20027;-70
2022/01/08 02:09:08;;;;;;;0.40;0.40;;;;;;;2.27;91.39;99193.22;5064952;28;20103;-70
2022/01/08 02:11:33;;;;;;;0.40;0.40;;;;;;;2.25;91.66;99194.91;5065068;28;20092;-69
2022/01/08 02:14:03;;;;;;;0.40;0.40;;;;;;;2.26;90.63;99199.16;5064999;28;20473;-69
2022/01/08 02:16:29;;;;;;;0.40;0.40;;;;;;;2.22;90.69;99191.47;5064926;28;20142;-70
2022/01/08 02:18:54;;;;;;;0.43;0.43;;;;;;;2.29;91.14;99196.63;5064876;28;20051;-70
2022/01/08 02:21:19;;;;;;;0.30;0.30;;;;;;;2.33;91.06;99188.13;5046616;28;20359;-70
2022/01/08 02:23:46;;;;;;;0.40;0.40;;;;;;;2.21;91.58;99169.28;5064786;28;20080;-71
2022/01/08 02:26:11;;;;;;;0.40;0.40;;;;;;;2.33;91.25;99203.50;5064787;28;20025;-70
2022/01/08 02:28:39;;;;;;;0.40;0.40;;;;;;;2.30;91.40;99196.63;5064659;28;20538;-70
2022/01/08 02:31:04;;;;;;;0.40;0.40;;;;;;;2.26;90.76;99191.47;5064120;28;20389;-70
2022/01/08 02:33:30;;;;;;;0.40;0.40;;;;;;;2.19;90.85;99186.31;5064557;28;20032;-70
2022/01/08 02:35:56;;;;;;;0.40;0.40;;;;;;;2.18;90.58;99191.44;5064471;28;20029;-70
2022/01/08 02:38:23;;;;;;;0.35;0.35;;;;;;;2.18;90.36;99197.44;5063734;28;20021;-70
2022/01/08 02:40:59;;;;;;;0.40;0.40;;;;;;;2.12;90.79;99193.97;5064211;28;20051;-70
2022/01/08 02:43:27;;;;;;;0.40;0.40;;;;;;;2.07;90.83;99188.81;5064463;28;20028;-70
2022/01/08 02:45:52;;;;;;;0.43;0.43;;;;;;;2.11;91.02;99190.53;5064147;28;20029;-71
2022/01/08 02:48:18;;;;;;;0.40;0.40;;;;;;;2.07;90.80;99192.25;5063917;28;20116;-71
2022/01/08 02:50:43;;;;;;;0.40;0.40;;;;;;;2.08;90.85;99190.50;5064370;28;20025;-71
2022/01/08 02:53:08;;;;;;;0.40;0.40;;;;;;;2.03;90.57;99192.22;5064070;28;20021;-71
2022/01/08 02:55:36;;;;;;;0.50;0.50;;;;;;;2.06;90.73;99182.81;5063896;28;20035;-71
2022/01/08 02:58:02;;;;;;;0.50;0.50;;;;;;;2.05;90.70;99170.00;5063769;28;20025;-71
2022/01/08 03:00:28;;;;;;;0.40;0.40;;;;;;;2.07;91.19;99171.75;5063447;28;20035;-70
2022/01/08 03:02:53;;;;;;;0.45;0.45;;;;;;;2.15;91.29;99181.19;5063473;28;20024;-70
2022/01/08 03:05:20;;;;;;;0.40;0.40;;;;;;;2.16;91.66;99175.19;5063360;28;20100;-69
2022/01/08 03:07:47;;;;;;;0.40;0.40;;;;;;;2.18;91.43;99170.94;5063693;28;20313;-70
2022/01/08 03:10:15;;;;;;;0.40;0.40;;;;;;;2.14;91.50;99177.75;5063549;28;20021;-71
2022/01/08 03:12:42;;;;;;;0.50;0.50;;;;;;;2.21;91.46;99173.53;5063494;28;20020;-69
2022/01/08 03:15:13;;;;;;;0.40;0.40;;;;;;;2.26;91.64;99168.44;5063351;28;20077;-69
2022/01/08 03:17:39;;;;;;;0.40;0.40;;;;;;;2.30;91.60;99167.63;5063072;28;20024;-69
2022/01/08 03:20:09;;;;;;;0.40;0.40;;;;;;;2.21;91.84;99161.59;5063442;28;20050;-70
2022/01/08 03:22:36;;;;;;;0.43;0.43;;;;;;;2.16;91.93;99158.13;5063265;28;20024;-68
2022/01/08 03:25:01;;;;;;;0.40;0.40;;;;;;;2.22;92.17;99153.06;5062983;28;20082;-68
2022/01/08 03:27:27;;;;;;;0.40;0.40;;;;;;;2.22;92.50;99142.81;5063094;28;20029;-69
2022/01/08 03:29:53;;;;;;;0.40;0.40;;;;;;;2.15;92.35;99148.75;5063366;28;20017;-69
2022/01/08 03:32:18;;;;;;;0.40;0.40;;;;;;;2.14;92.38;99134.22;5062815;28;20589;-69
2022/01/08 03:34:43;;;;;;;0.40;0.40;;;;;;;2.14;92.79;99135.94;5062947;28;20047;-69
2022/01/08 03:37:09;;;;;;;0.40;0.40;;;;;;;2.16;92.69;99129.97;5062994;28;20087;-69
2022/01/08 03:39:34;;;;;;;0.50;0.50;;;;;;;2.16;92.88;99127.41;5062935;28;20496;-69
2022/01/08 03:42:00;;;;;;;0.50;0.50;;;;;;;2.21;93.05;99135.13;5063100;28;20036;-69
2022/01/08 03:44:25;;;;;;;0.40;0.40;;;;;;;2.20;93.00;99134.28;5062925;28;20021;-69
2022/01/08 03:46:51;;;;;;;0.40;0.40;;;;;;;2.23;92.91;99133.44;5062997;28;20029;-70
2022/01/08 03:49:25;;;;;;;0.40;0.40;;;;;;;2.25;93.16;99138.56;5062946;28;20025;-70
2022/01/08 03:51:55;;;;;;;0.40;0.40;;;;;;;2.19;93.15;99131.72;5063128;28;20100;-70
2022/01/08 03:54:21;;;;;;;0.40;0.40;;;;;;;2.25;93.13;99136.00;5062593;28;20020;-71
2022/01/08 03:56:47;;;;;;;0.40;0.40;;;;;;;2.25;93.15;99134.31;5062971;28;20558;-71
2022/01/08 03:59:12;;;;;;;0.40;0.40;;;;;;;2.28;93.24;99136.88;5062927;28;20037;-71
2022/01/08 04:01:38;;;;;;;0.40;0.40;;;;;;;2.28;93.22;99123.22;5063065;28;20147;-71
2022/01/08 04:04:04;;;;;;;0.82;0.82;;;;;;;2.29;93.36;99132.59;5062891;28;20029;-71
2022/01/08 04:06:29;;;;;;;0.47;0.47;;;;;;;2.32;93.28;99133.47;5044781;28;20025;-72
2022/01/08 04:08:58;;;;;;;0.40;0.40;;;;;;;2.26;93.43;99136.00;5063077;28;20021;-71
2022/01/08 04:11:25;;;;;;;0.40;0.40;;;;;;;2.27;93.43;99119.78;5063153;28;20028;-71
2022/01/08 04:13:52;;;;;;;0.40;0.40;;;;;;;2.28;93.53;99141.13;5063057;28;20064;-71
2022/01/08 04:16:22;;;;;;;0.40;0.40;;;;;;;2.28;93.65;99136.00;5062425;28;20055;-70
2022/01/08 04:18:47;;;;;;;0.40;0.40;;;;;;;2.30;93.31;99131.75;5062806;28;20097;-70
2022/01/08 04:23:59;;;;;;;0.40;0.40;;;;;;;2.32;93.35;99123.22;5063103;28;20112;-71
2022/01/08 04:26:25;;;;;;;0.40;0.40;;;;;;;2.37;93.33;99123.25;5062632;28;20025;-71
2022/01/08 04:28:52;;;;;;;0.40;0.40;;;;;;;2.32;93.59;99128.34;5062917;28;20020;-72
2022/01/08 04:31:18;;;;;;;4.88;4.53;;;;;;;2.29;93.28;99124.91;5062364;28;20101;-71
2022/01/08 04:33:43;;;;;;;0.30;0.30;;;;;;;2.23;93.61;99113.81;5062819;28;20056;-72
2022/01/08 04:36:09;;;;;;;0.30;0.30;;;;;;;2.23;93.47;99123.19;5062700;28;20084;-72
2022/01/08 04:38:34;;;;;;;0.40;0.40;;;;;;;2.17;93.45;99126.56;5062712;28;20017;-72
2022/01/08 04:41:00;;;;;;;0.40;0.40;;;;;;;2.18;93.47;99119.75;5062777;28;20028;-72
2022/01/08 04:43:27;;;;;;;0.40;0.40;;;;;;;2.13;93.47;99119.72;5062594;28;20150;-72
2022/01/08 04:45:53;;;;;;;0.40;0.40;;;;;;;2.19;93.73;99122.31;5062586;28;20029;-72
2022/01/08 04:48:20;;;;;;;0.40;0.40;;;;;;;2.14;93.68;99123.97;5062348;28;20036;-72
2022/01/08 04:50:45;;;;;;;0.40;0.40;;;;;;;2.20;93.70;99118.06;5062575;28;20029;-72
2022/01/08 04:53:10;;;;;;;0.40;0.40;;;;;;;2.18;93.53;99114.63;5062505;28;20036;-72
2022/01/08 04:55:38;;;;;;;0.40;0.40;;;;;;;2.17;93.44;99115.47;5062470;28;20029;-72
2022/01/08 04:58:05;;;;;;;0.40;0.40;;;;;;;2.16;93.53;99117.16;5062650;28;20039;-72
2022/01/08 05:00:30;;;;;;;0.40;0.40;;;;;;;2.16;93.37;99117.16;5062692;28;20073;-72
2022/01/08 05:02:56;;;;;;;0.32;0.32;;;;;;;2.15;93.43;99119.72;5064988;28;20073;-72
2022/01/08 05:05:21;;;;;;;0.40;0.40;;;;;;;2.19;93.43;99124.03;5065973;28;20033;-72
2022/01/08 05:07:47;;;;;;;0.40;0.40;;;;;;;2.16;93.44;99117.16;5066157;28;20092;-73
2022/01/08 05:10:12;;;;;;;0.40;0.40;;;;;;;2.19;93.36;99117.19;5066017;28;20028;-73
2022/01/08 05:12:38;;;;;;;0.30;0.30;;;;;;;2.18;93.00;99117.19;5065833;28;20055;-73
2022/01/08 05:15:04;;;;;;;0.40;0.40;;;;;;;2.17;92.97;99113.75;5065852;28;20028;-73
2022/01/08 05:17:34;;;;;;;0.40;0.40;;;;;;;2.11;93.17;99116.28;5065686;28;20032;-73
2022/01/08 05:20:02;;;;;;;0.40;0.40;;;;;;;2.13;93.47;99113.72;5065922;28;20024;-73
2022/01/08 05:22:30;;;;;;;0.40;0.40;;;;;;;2.15;93.50;99109.47;5065613;28;20523;-73
2022/01/08 05:24:56;;;;;;;0.40;0.40;;;;;;;2.20;93.43;99113.78;5065574;28;20021;-73
2022/01/08 05:27:22;;;;;;;0.40;0.40;;;;;;;2.19;93.34;99108.66;5065588;28;20035;-73
2022/01/08 05:29:50;;;;;;;0.40;0.40;;;;;;;2.26;93.08;99114.66;5065693;28;20024;-74
2022/01/08 05:32:17;;;;;;;0.40;0.40;;;;;;;2.22;92.68;99112.06;5065233;28;20072;-74
2022/01/08 05:34:48;;;;;;;2.83;2.67;;;;;;;2.21;92.77;99112.06;5065470;28;20171;-73
2022/01/08 05:37:14;;;;;;;0.40;0.40;;;;;;;2.21;92.28;99109.50;5064394;28;20025;-74
2022/01/08 05:39:39;;;;;;;0.40;0.40;;;;;;;2.05;92.79;99088.97;5065425;28;20036;-74
2022/01/08 05:42:05;;;;;;;0.40;0.40;;;;;;;2.08;92.78;99106.91;5065224;28;20021;-74
2022/01/08 05:44:30;;;;;;;0.40;0.40;;;;;;;2.13;93.27;99112.03;5065167;28;20017;-74
2022/01/08 05:46:56;;;;;;;0.50;0.50;;;;;;;2.17;93.36;99110.34;5065121;28;20389;-74
2022/01/08 05:49:22;;;;;;;0.40;0.40;;;;;;;2.18;93.66;99110.38;5065167;28;20071;-75
2022/01/08 05:51:47;;;;;;;0.40;0.40;;;;;;;2.19;93.19;99109.50;5065073;28;20024;-73
2022/01/08 05:54:12;;;;;;;0.40;0.40;;;;;;;2.19;92.96;99101.00;5065149;28;20017;-73
2022/01/08 05:56:38;;;;;;;0.40;0.40;;;;;;;2.18;93.26;99102.69;5046759;28;20055;-74
2022/01/08 05:59:04;;;;;;;0.45;0.45;;;;;;;2.18;93.03;99100.13;5064784;28;20021;-74
2022/01/08 06:01:29;;;;;;;0.50;0.50;;;;;;;2.17;93.14;99100.94;5064836;28;20028;-73
2022/01/08 06:03:55;;;;;;;0.40;0.40;;;;;;;2.15;93.32;99096.69;5064943;28;20032;-74
2022/01/08 06:06:20;;;;;;;0.40;0.40;;;;;;;2.23;93.34;99101.00;5046884;28;20028;-74
2022/01/08 06:08:45;;;;;;;0.73;0.73;;;;;;;2.16;93.26;99086.44;5064912;28;20069;-75
2022/01/08 06:11:11;;;;;;;0.38;0.38;;;;;;;2.07;92.76;99078.72;5064842;28;20056;-75
2022/01/08 06:13:36;;;;;;;0.35;0.35;;;;;;;2.19;92.43;99101.81;5064835;28;20028;-74
2022/01/08 06:16:02;;;;;;;0.40;0.40;;;;;;;2.11;92.48;99100.91;5064807;28;20036;-74
2022/01/08 06:18:27;;;;;;;0.40;0.40;;;;;;;2.20;92.27;99098.44;5064415;28;20029;-75
2022/01/08 06:20:55;;;;;;;0.40;0.40;;;;;;;2.12;92.14;99091.53;5064691;28;20468;-75
2022/01/08 06:23:21;;;;;;;0.50;0.50;;;;;;;2.11;92.49;99098.34;5064647;28;20084;-75
2022/01/08 06:25:46;;;;;;;0.40;0.40;;;;;;;2.09;92.43;99094.97;5046464;28;20051;-74
2022/01/08 06:28:12;;;;;;;0.40;0.40;;;;;;;2.21;92.19;99079.66;5064426;28;20036;-75
2022/01/08 06:30:37;;;;;;;0.40;0.40;;;;;;;2.09;92.37;99079.59;5064377;28;20364;-74
2022/01/08 06:33:02;;;;;;;0.40;0.40;;;;;;;2.09;92.62;99082.16;5064349;28;20029;-74
2022/01/08 06:35:29;;;;;;;0.50;0.50;;;;;;;2.06;92.89;99075.28;5064244;28;20029;-74
2022/01/08 06:37:55;;;;;;;0.40;0.40;;;;;;;2.06;92.93;99074.47;5064419;28;20033;-74
2022/01/08 06:40:20;;;;;;;0.40;0.40;;;;;;;2.14;92.34;99077.06;5064114;28;20074;-73
2022/01/08 06:42:45;;;;;;;0.30;0.30;;;;;;;2.02;92.46;99085.50;5064128;28;20111;-74
2022/01/08 06:45:11;;;;;;;0.40;0.40;;;;;;;2.07;92.41;99084.72;5064263;28;20025;-74
2022/01/08 06:47:36;;;;;;;0.35;0.35;;;;;;;2.04;91.42;99073.59;5063880;28;20101;-74
2022/01/08 06:50:02;;;;;;;0.35;0.35;;;;;;;2.06;91.92;99085.53;5064145;28;20021;-75
2022/01/08 06:52:28;;;;;;;0.40;0.40;;;;;;;1.97;91.94;99081.25;5045988;28;20064;-73
2022/01/08 06:54:53;;;;;;;0.40;0.40;;;;;;;2.02;92.44;99080.41;5063989;28;20036;-72
2022/01/08 06:57:19;;;;;;;0.40;0.40;;;;;;;2.09;92.04;99075.31;5064176;28;20020;-74
2022/01/08 06:59:44;;;;;;;0.30;0.30;;;;;;;2.07;92.56;99078.72;5064022;28;20021;-75
2022/01/08 07:02:09;;;;;;;0.40;0.40;;;;;;;2.05;92.10;99070.16;5063855;28;20040;-73
2022/01/08 07:04:35;;;;;;;0.40;0.40;;;;;;;2.01;92.41;99071.88;5064069;28;20025;-74
2022/01/08 07:07:00;;;;;;;0.40;0.40;;;;;;;2.01;92.63;99071.88;5063946;28;20024;-74
2022/01/08 07:09:26;;;;;;;0.40;0.40;;;;;;;2.12;92.07;99064.25;5063933;28;20029;-73
2022/01/08 07:11:51;;;;;;;0.40;0.40;;;;;;;2.12;92.13;99054.00;5045889;28;20096;-74
2022/01/08 07:14:17;;;;;;;0.40;0.40;;;;;;;2.07;92.35;99054.00;5063840;28;20025;-74
2022/01/08 07:16:42;;;;;;;0.40;0.40;;;;;;;2.09;92.28;99056.56;5063636;28;20021;-74
2022/01/08 07:19:07;;;;;;;0.43;0.43;;;;;;;2.10;92.50;99046.31;5063673;28;20438;-74
2022/01/08 07:21:33;;;;;;;0.40;0.40;;;;;;;2.07;92.32;99040.31;5063891;28;20084;-74
2022/01/08 07:23:58;;;;;;;0.50;0.50;;;;;;;2.12;91.81;99045.47;5063285;28;20055;-74
2022/01/08 07:26:24;;;;;;;0.40;0.40;;;;;;;2.21;90.74;99046.34;5063611;28;20031;-74
2022/01/08 07:28:49;;;;;;;0.40;0.40;;;;;;;2.08;90.83;99036.91;5063699;28;20021;-74
2022/01/08 07:31:14;;;;;;;0.95;0.95;;;;;;;2.10;91.13;99042.91;5063418;28;20052;-72
2022/01/08 07:33:40;;;;;;;0.40;0.40;;;;;;;2.10;90.60;99035.22;5064226;28;20094;-72
2022/01/08 07:36:05;;;;;;;0.35;0.35;;;;;;;2.06;89.92;99036.06;5063506;28;20029;-75
2022/01/08 07:38:31;;;;;;;0.40;0.40;;;;;;;2.00;90.56;99038.59;5063711;28;20029;-73
2022/01/08 07:40:56;;;;;;;0.45;0.45;;;;;;;2.08;90.04;99035.19;5063592;28;20365;-74
2022/01/08 07:43:22;;;;;;;0.40;0.40;;;;;;;2.02;89.97;99039.44;5063690;28;20029;-73
2022/01/08 07:45:47;;;;;;;0.40;0.40;;;;;;;2.01;89.90;99046.28;5063294;28;20021;-74
2022/01/08 07:48:13;;;;;;;0.40;0.40;;;;;;;2.04;89.73;99030.06;5063229;28;20088;-73
2022/01/08 07:50:39;;;;;;;0.40;0.40;;;;;;;1.93;89.88;99030.84;5063583;28;20033;-73
2022/01/08 07:53:04;;;;;;;0.40;0.40;;;;;;;1.94;90.01;99026.59;5063400;28;20028;-72
2022/01/08 07:55:30;;;;;;;0.40;0.40;;;;;;;2.06;89.38;99031.78;5063425;28;20029;-73
2022/01/08 07:57:55;;;;;;;0.40;0.40;;;;;;;1.83;90.09;99022.31;5045195;28;20029;-73
2022/01/08 08:00:21;;;;;;;0.40;0.40;;;;;;;1.69;90.73;99013.69;5063381;28;20056;-73
2022/01/08 08:02:46;;;;;;;0.40;0.40;;;;;;;1.80;90.64;99019.72;5045270;28;20027;-73
2022/01/08 08:05:11;;;;;;;0.40;0.40;;;;;;;1.85;89.95;99023.16;5062974;28;20056;-73
2022/01/08 08:07:38;;;;;;;0.40;0.40;;;;;;;1.86;89.47;99011.22;5062879;28;20021;-75
2022/01/08 08:10:13;;;;;;;0.40;0.40;;;;;;;1.78;89.86;99015.44;5063072;28;20470;-77
2022/01/08 08:12:40;;;;;;;0.40;0.40;;;;;;;1.57;90.67;98992.31;5063070;28;20098;-75
2022/01/08 08:15:07;;;;;;;0.32;0.32;;;;;;;1.64;90.57;99003.44;5062987;28;20025;-74
2022/01/08 08:17:33;;;;;;;0.43;0.43;;;;;;;1.59;90.31;98992.31;5062915;28;20029;-75
2022/01/08 08:19:59;;;;;;;0.45;0.45;;;;;;;1.72;89.90;99009.47;5062987;28;20039;-77
2022/01/08 08:22:24;;;;;;;0.43;0.43;;;;;;;1.59;89.94;98993.19;5062967;28;20017;-77
2022/01/08 08:24:49;;;;;;;0.50;0.50;;;;;;;1.61;90.14;99000.88;5062650;28;20032;-77
2022/01/08 08:27:15;;;;;;;0.43;0.43;;;;;;;1.57;89.93;98999.13;5063102;28;20021;-80
2022/01/08 08:29:41;;;;;;;0.40;0.40;;;;;;;1.46;90.53;98991.41;5062919;28;20021;-79
2022/01/08 08:32:08;;;;;;;0.40;0.40;;;;;;;1.51;90.15;98984.59;5062423;28;20072;-75
2022/01/08 08:34:34;;;;;;;0.75;0.75;;;;;;;1.52;89.82;98988.03;5044768;28;20025;-75
2022/01/08 08:36:59;;;;;;;0.50;0.50;;;;;;;1.43;89.90;98974.34;5046174;28;20047;-72
2022/01/08 08:39:25;;;;;;;0.45;0.45;;;;;;;1.27;90.66;98983.63;5066706;28;20021;-71
2022/01/08 08:41:51;;;;;;;0.50;0.50;;;;;;;1.34;90.29;98974.28;5066778;28;20104;-71
2022/01/08 08:44:16;;;;;;;0.43;0.43;;;;;;;1.36;90.18;98976.00;5066562;28;20021;-73
2022/01/08 08:46:42;;;;;;;0.50;0.50;;;;;;;1.40;89.50;98966.66;5066105;28;20132;-74
2022/01/08 08:49:07;;;;;;;0.40;0.40;;;;;;;1.15;90.70;98970.75;5066402;28;20028;-74
2022/01/08 08:51:32;;;;;;;0.50;0.50;;;;;;;1.08;91.25;98969.84;5066393;28;20016;-73
2022/01/08 08:53:58;;;;;;;0.40;0.40;;;;;;;1.25;91.05;98976.78;5066386;28;20028;-74
2022/01/08 08:56:24;;;;;;;0.40;0.40;;;;;;;1.20;90.69;98962.25;5066185;28;20025;-74
2022/01/08 08:58:50;;;;;;;0.50;0.50;;;;;;;1.10;90.91;98958.78;5066322;28;20032;-71
2022/01/08 09:01:15;;;;;;;0.50;0.50;;;;;;;1.28;90.49;98954.63;5066124;28;20020;-70
2022/01/08 09:03:41;;;;;;;0.45;0.45;;;;;;;1.28;90.72;98958.91;5066044;28;20029;-70
2022/01/08 09:06:06;;;;;;;0.40;0.40;;;;;;;1.07;91.05;98951.09;5065880;28;20032;-73
2022/01/08 09:08:31;;;;;;;0.40;0.40;;;;;;;0.84;92.19;98959.47;5065990;28;20025;-75
2022/01/08 09:10:57;;;;;;;0.40;0.40;;;;;;;0.91;92.11;98951.84;5066179;28;20029;-74
2022/01/08 09:13:25;;;;;;;0.40;0.40;;;;;;;0.95;91.50;98959.53;5066047;28;20059;-70
2022/01/08 09:15:50;;;;;;;0.43;0.43;;;;;;;0.90;91.91;98945.00;5066020;28;20033;-70
2022/01/08 09:18:16;;;;;;;0.50;0.50;;;;;;;0.77;91.77;98947.47;5065475;28;20104;-67
2022/01/08 09:20:42;;;;;;;0.40;0.40;;;;;;;0.79;91.75;98938.13;5065835;28;20025;-69
2022/01/08 09:23:07;;;;;;;0.50;0.50;;;;;;;0.67;92.01;98928.66;5047977;28;20083;-71
2022/01/08 09:25:33;;;;;;;0.40;0.40;;;;;;;0.56;92.31;98931.13;5065632;28;20287;-70
2022/01/08 09:27:58;;;;;;;0.50;0.50;;;;;;;0.58;92.42;98926.03;5065763;28;20021;-69
2022/01/08 09:30:24;;;;;;;0.50;0.50;;;;;;;0.39;93.08;98925.88;5065565;28;20021;-74
2022/01/08 09:32:50;;;;;;;0.77;0.77;;;;;;;0.34;93.63;98915.63;5065440;28;20044;-69
2022/01/08 09:35:16;;;;;;;0.50;0.50;;;;;;;0.33;94.05;98911.38;5066334;28;20025;-77
2022/01/08 09:37:42;;;;;;;0.40;0.40;;;;;;;0.53;93.83;98908.13;5066296;28;20024;-78
2022/01/08 09:40:14;;;;;;;0.50;0.50;;;;;;;0.39;93.22;98913.09;5065399;28;20462;-75
2022/01/08 09:42:41;;;;;;;0.50;0.50;;;;;;;0.39;92.93;98908.00;5065516;28;20056;-74
2022/01/08 09:45:07;;;;;;;0.40;0.40;;;;;;;0.22;93.18;98906.13;5065204;28;20028;-74
2022/01/08 09:47:33;;;;;;;0.40;0.40;;;;;;;0.02;94.17;98888.09;5064593;28;20076;-75
2022/01/08 09:49:58;;;;;;;0.50;0.50;;;;;;;0.14;94.27;98897.56;5065188;28;20049;-75
2022/01/08 09:52:24;;;;;;;0.40;0.40;;;;;;;0.16;93.99;98889.94;5065351;28;20025;-76
2022/01/08 09:54:49;;;;;;;0.40;0.40;;;;;;;0.06;94.09;98889.84;5065207;28;20025;-75
2022/01/08 09:57:15;;;;;;;0.40;0.40;;;;;;;0.09;94.54;98883.91;5064977;28;20056;-76
2022/01/08 09:59:40;;;;;;;0.40;0.40;;;;;;;0.23;94.27;98882.34;5065224;28;20025;-77
2022/01/08 10:02:06;;;;;;;0.40;0.40;;;;;;;0.19;94.46;98879.75;5064938;28;20024;-77
2022/01/08 10:04:35;;;;;;;0.40;0.40;;;;;;;0.26;94.21;98865.34;5065343;28;20029;-78
2022/01/08 10:07:23;;;;;;;0.50;0.50;;;;;;;0.24;93.05;98868.72;5065160;28;20084;-76
2022/01/08 10:10:04;;;;;;;0.50;0.50;;;;;;;0.03;94.24;98873.66;5064956;28;20070;-75
2022/01/08 10:12:39;;;;;;;0.50;0.50;;;;;;;-0.03;95.00;98851.47;5046993;28;20025;-75
2022/01/08 10:17:49;;;;;;;0.43;0.43;;;;;;;0.03;95.54;98838.78;5064706;28;20071;-74
2022/01/08 10:20:39;;;;;;;0.50;0.50;;;;;;;0.16;94.77;98834.63;5064593;28;20025;-73
2022/01/08 10:23:07;;;;;;;0.40;0.40;;;;;;;0.23;94.35;98846.59;5064752;28;20061;-73
2022/01/08 10:25:33;;;;;;;0.40;0.40;;;;;;;0.25;94.17;98846.63;5064690;28;20028;-72
2022/01/08 10:27:58;;;;;;;0.47;0.47;;;;;;;0.17;94.29;98833.81;5064789;28;20028;-74
2022/01/08 10:30:25;;;;;;;0.40;0.40;;;;;;;0.11;94.95;98841.41;5064482;28;20025;-70
2022/01/08 10:32:59;;;;;;;0.50;0.50;;;;;;;0.18;95.00;98838.03;5063985;28;20059;-69
2022/01/08 10:35:49;;;;;;;0.50;0.50;;;;;;;0.11;95.13;98841.41;5064295;28;20473;-72
2022/01/08 10:38:14;;;;;;;0.30;0.30;;;;;;;0.08;95.44;98814.13;5054209;28;20092;-79
2022/01/08 10:40:40;;;;;;;0.40;0.40;;;;;;;0.35;94.60;98824.56;5064863;28;20029;-80
2022/01/08 10:43:24;;;;;;;0.50;0.50;;;;;;;0.20;94.63;98815.94;5064618;28;20076;-79
2022/01/08 10:45:50;;;;;;;0.40;0.40;;;;;;;0.16;95.18;98808.25;5064415;28;20152;-79
2022/01/08 10:48:31;;;;;;;0.40;0.40;;;;;;;0.24;95.39;98811.72;5063979;28;20021;-81
2022/01/08 10:51:11;;;;;;;0.50;0.50;;;;;;;0.20;95.87;98809.97;5064016;28;20449;-76
2022/01/08 10:53:57;;;;;;;0.40;0.40;;;;;;;0.42;95.19;98810.13;5064156;28;20044;-77
2022/01/08 10:56:24;;;;;;;0.40;0.40;;;;;;;0.35;95.15;98805.00;5046056;28;20024;-76
2022/01/08 10:58:52;;;;;;;0.40;0.40;;;;;;;0.48;94.60;98805.06;5063699;28;20056;-79
2022/01/08 11:01:37;;;;;;;0.40;0.40;;;;;;;0.44;95.21;98804.22;5063633;28;20017;-79
2022/01/08 11:04:05;;;;;;;0.40;0.40;;;;;;;0.34;95.26;98799.88;5046082;28;20035;-80
2022/01/08 11:06:31;;;;;;;0.50;0.50;;;;;;;0.32;95.98;98796.47;5063739;28;20117;-82
2022/01/08 11:09:01;;;;;;;0.40;0.40;;;;;;;0.36;96.01;98795.66;5064118;28;20020;-78
2022/01/08 11:11:30;;;;;;;0.32;0.32;;;;;;;0.48;95.68;98808.50;5063868;28;20024;-77
2022/01/08 11:14:07;;;;;;;0.40;0.40;;;;;;;0.48;95.77;98800.81;5045664;28;20447;-77
2022/01/08 11:16:34;;;;;;;0.47;0.47;;;;;;;0.72;94.48;98806.06;5063551;28;20048;-73
2022/01/08 11:19:02;;;;;;;0.40;0.40;;;;;;;0.66;94.42;98790.72;5063585;28;20036;-74
2022/01/08 11:21:30;;;;;;;0.43;0.43;;;;;;;0.66;94.32;98783.91;5063991;28;20028;-74
2022/01/08 11:23:59;;;;;;;0.40;0.40;;;;;;;0.54;94.75;98786.41;5063768;28;20080;-73
2022/01/08 11:26:27;;;;;;;0.40;0.40;;;;;;;0.71;94.91;98773.72;5063422;28;20054;-72
2022/01/08 11:28:58;;;;;;;0.50;0.50;;;;;;;0.58;94.96;98783.88;5063428;28;20090;-73
2022/01/08 11:31:29;;;;;;;0.50;0.50;;;;;;;0.76;94.62;98779.72;5063291;28;20051;-75
2022/01/08 11:34:01;;;;;;;0.40;0.40;;;;;;;0.62;94.58;98771.97;5061617;28;20045;-75
2022/01/08 11:36:27;;;;;;;;;;;;;;;0.65;94.81;98764.34;5063507;28;20105;-76
2022/01/08 11:38:57;;;;;;;0.40;0.40;;;;;;;0.55;95.20;98765.97;5063330;28;19917;-76
2022/01/08 11:41:22;;;;;;;0.40;0.40;;;;;;;0.54;95.03;98748.09;5063375;28;20035;-75
2022/01/08 11:43:50;;;;;;;0.50;0.50;;;;;;;0.51;95.54;98771.06;5063503;28;20380;-74
2022/01/08 11:46:17;;;;;;;0.40;0.40;;;;;;;0.50;95.50;98767.63;5063215;28;20052;-77
2022/01/08 11:48:45;;;;;;;0.50;0.50;;;;;;;0.56;95.19;98761.72;5063083;28;20060;-71
2022/01/08 11:51:23;;;;;;;0.57;0.57;;;;;;;0.52;95.65;98760.84;5063191;28;20024;-69
2022/01/08 11:53:54;;;;;;;0.40;0.40;;;;;;;0.54;95.26;98760.84;5063217;28;20531;-71
2022/01/08 11:56:36;;;;;;;0.50;0.50;;;;;;;0.50;95.69;98765.09;5063305;28;20040;-71
2022/01/08 11:59:17;;;;;;;0.60;0.60;;;;;;;0.48;96.08;98761.66;5063297;28;20397;-68
2022/01/08 12:02:04;;;;;;;0.50;0.50;;;;;;;0.54;96.25;98768.53;5062844;28;20583;-70